Terminal Aerodrome Forecast
Issued by NWS

Home | Current Version | Previous Version | Text Only | Print | Product List | Glossary On
Versions: 1 2 3 4 5 6 7 8 9 10 11 12 13 14 15 16 17 18 19
000
FTUS42 KGSP 172300
TAFGMU
TAF
KGMU 172331Z 1800/1824 08005KT P6SM FEW250
     FM180900 03005KT P6SM BKN050 BKN250
     FM181900 07009KT P6SM OVC045
     FM182100 08008KT P6SM OVC025
     FM182300 08007KT P6SM -RA OVC015=

USA.gov is the U.S. government's official web portal to all federal, state and local government web resources and services.